Harrison Park (222) Station Data

Red Flag Warning: No
Fire Weather Zone: 258
SDGE Region: Ramona
Lat/Lon: 33.04/-116.561

Observations

Time Wind Speed/Gust Temp(F) RH Fuel Moist Fuel Temp(F) Dewpt(F) Tmax(F) Tmin(F) Accum Precip 10-min Precip SL Press(mb)
2/27 11:40pm 255 28 G 40 38° 100% - - 38° 43.3° 37.4° - - 1010.0
2/27 11:20pm 250 24 G 37 39° 100% - - 39° 43.3° 37.8° - - 1010.0
2/27 11:10pm 249 27 G 40 39° 100% - - 39° 43.3° 37.8° - - 1010.0
2/27 11:00pm 243 29 G 45 39° 100% - - 40° 43.3° 37.8° - - 1010.0
2/27 10:50pm 240 32 G 43 40° 100% - - 40° 43.3° 37.8° - - 1009.0
2/27 10:40pm 248 34 G 46 40° 100% - - 40° 43.3° 37.8° - - 1009.0
2/27 10:30pm 244 33 G 44 40° 100% - - 40° 43.3° 37.8° - - 1009.0
2/27 10:20pm 244 33 G 49 40° 100% - - 40° 43.3° 37.8° - - 1009.0
2/27 10:10pm 243 28 G 39 40° 100% - - 40° 43.3° 37.8° - - 1009.0
2/27 10:00pm 241 26 G 33 40° 100% - - 40° 43.3° 37.8° - - 1009.0
2/27 9:50pm 241 27 G 39 40° 100% - - 40° 43.3° 37.8° - - 1009.0
2/27 9:40pm 230 30 G 40 40° 100% - - 40° 43.3° 37.8° - - 1009.0
2/27 9:30pm 229 30 G 40 40° 100% - - 40° 43.3° 37.8° - - 1009.0
2/27 9:20pm 230 26 G 42 40° 100% - - 40° 43.3° 37.8° - - 1009.0
2/27 9:10pm 238 22 G 29 40° 100% - - 40° 43.3° 37.8° - - 1010.0
2/27 9:00pm 235 25 G 34 40° 100% - - 40° 43.3° 37.8° - - 1009.0
2/27 8:50pm 233 28 G 37 40° 100% - - 40° 43.3° 37.8° - - 1009.0
2/27 8:40pm 230 32 G 43 41° 100% - - 41° 43.3° 37.8° - - 1009.0
2/27 8:30pm 229 32 G 45 41° 100% - - 41° 43.3° 37.8° - - 1008.0
2/27 8:20pm 224 31 G 42 41° 100% - - 41° 43.3° 37.8° - - 1009.0
2/27 8:10pm 224 28 G 39 41° 100% - - 41° 43.3° 37.8° - - 1009.0
2/27 8:00pm 221 29 G 38 41° 100% - - 41° 43.3° 37.8° - - 1009.0
2/27 7:50pm 221 29 G 39 40° 100% - - 40° 43.3° 37.8° - - 1009.0
2/27 7:40pm 224 30 G 40 40° 100% - - 40° 43.3° 37.8° - - 1009.0
2/27 7:30pm 229 30 G 40 40° 100% - - 40° 43.3° 37.8° - - 1009.0
2/27 7:20pm 228 30 G 37 40° 100% - - 40° 43.3° 37.8° - - 1009.0
2/27 7:10pm 234 30 G 43 40° 100% - - 40° 43.3° 37.8° - - 1009.0
2/27 7:00pm 235 34 G 44 40° 100% - - 40° 43.3° 37.8° - - 1009.0
2/27 6:50pm 229 34 G 47 41° 100% - - 41° 43.3° 37.8° - - 1008.0
2/27 6:40pm 231 31 G 42 41° 100% - - 41° 43.3° 37.8° - - 1009.0
2/27 6:30pm 232 27 G 36 40° 100% - - 40° 43.3° 37.8° - - 1009.0
2/27 6:20pm 238 28 G 35 40° 100% - - 40° 43.3° 37.8° - - 1009.0
2/27 6:10pm 235 27 G 39 40° 100% - - 40° 43.3° 37.8° - - 1009.0
2/27 6:00pm 232 30 G 42 40° 100% - - 40° 43.3° 37.8° - - 1009.0
2/27 5:50pm 232 25 G 34 40° 100% - - 40° 43.3° 37.8° - - 1009.0
2/27 5:40pm 234 29 G 37 40° 100% - - 40° 43.3° 37.8° - - 1009.0
2/27 5:30pm 236 28 G 36 40° 100% - - 40° 43.3° 37.8° - - 1009.0
2/27 5:20pm 240 25 G 34 40° 100% - - 40° 43.3° 37.8° - - 1010.0
2/27 5:10pm 238 25 G 33 40° 100% - - 40° 43.3° 37.8° - - 1010.0
2/27 5:00pm 234 28 G 37 40° 100% - - 40° 43.3° 37.8° - - 1009.0
2/27 4:50pm 230 28 G 38 40° 100% - - 40° 43.3° 37.8° - - 1009.0
2/27 4:40pm 229 29 G 40 39° 100% - - 39° 43.3° 37.8° - - 1010.0
2/27 4:30pm 228 28 G 36 39° 100% - - 39° 43.3° 37.8° - - 1010.0
2/27 4:20pm 224 27 G 34 39° 100% - - 39° 43.3° 37.8° - - 1010.0
2/27 4:10pm 229 28 G 38 39° 100% - - 39° 43.3° 37.8° - - 1010.0
2/27 4:00pm 229 29 G 37 39° 100% - - 39° 43.3° 37.8° - - 1010.0
2/27 3:50pm 233 28 G 40 39° 100% - - 39° 43.3° 37.8° - - 1010.0
2/27 3:40pm 238 35 G 46 39° 100% - - 39° 43.3° 37.8° - - 1010.0
2/27 3:30pm 236 32 G 44 39° 100% - - 39° 43.3° 37.8° - - 1010.0
2/27 3:20pm 235 31 G 49 39° 100% - - 39° 43.3° 37.8° - - 1010.0
2/27 3:10pm 235 35 G 50 39° 100% - - 39° 43.3° 37.8° - - 1010.0
2/27 3:00pm 231 33 G 45 40° 100% - - 40° 43.3° 37.8° - - 1010.0
2/27 2:50pm 233 33 G 46 40° 100% - - 40° 43.3° 37.8° - - 1010.0
2/27 2:40pm 233 31 G 43 40° 100% - - 40° 43.3° 37.8° - - 1010.0
2/27 2:30pm 231 30 G 40 41° 100% - - 41° 43.3° 37.8° - - 1010.0
2/27 2:20pm 229 27 G 38 41° 100% - - 41° 43.3° 37.8° - - 1010.0
2/27 2:10pm 238 32 G 45 41° 100% - - 41° 43.3° 37.8° - - 1010.0
2/27 2:00pm 239 26 G 36 41° 100% - - 41° 43.3° 37.8° - - 1010.0
2/27 1:50pm 241 27 G 35 41° 100% - - 41° 43.3° 37.8° - - 1010.0
2/27 1:40pm 242 27 G 41 42° 100% - - 42° 43.3° 37.8° - - 1010.0
2/27 1:30pm 236 30 G 42 42° 100% - - 42° 43.3° 37.8° - - 1010.0
2/27 1:20pm 229 30 G 41 42° 100% - - 42° 43.3° 37.8° - - 1010.0
2/27 1:10pm 231 32 G 45 42° 100% - - 42° 43.3° 37.8° - - 1010.0
2/27 1:00pm 234 31 G 48 42° 100% - - 42° 43.3° 37.8° - - 1010.0
2/27 12:50pm 230 34 G 47 42° 100% - - 42° 43.3° 37.8° - - 1010.0
2/27 12:40pm 231 30 G 40 42° 100% - - 42° 43.3° 37.8° - - 1010.0
2/27 12:30pm 230 28 G 39 42° 100% - - 42° 43.3° 37.8° - - 1010.0
2/27 12:20pm 226 30 G 38 42° 100% - - 42° 43.3° 37.8° - - 1011.0
2/27 12:10pm 232 30 G 41 41° 100% - - 41° 43.3° 37.8° - - 1011.0
2/27 12:00pm 233 27 G 39 41° 100% - - 41° 43.3° 37.8° - - 1012.0
2/27 11:50am 239 25 G 34 41° 100% - - 41° 43.3° 37.8° - - 1012.0
2/27 11:40am 244 22 G 31 41° 100% - - 41° 43.3° 37.8° - - 1012.0
2/27 11:30am 242 23 G 31 41° 100% - - 41° 43.3° 37.8° - - 1012.0
2/27 11:20am 245 24 G 31 42° 100% - - 42° 43.3° 37.8° - - 1012.0
2/27 11:10am 243 25 G 34 42° 100% - - 42° 43.3° 37.8° - - 1012.0
2/27 11:00am 243 24 G 33 42° 100% - - 42° 43.3° 37.8° - - 1012.0
2/27 10:50am 240 24 G 33 42° 100% - - 42° 43.3° 37.8° - - 1012.0
2/27 10:40am 237 25 G 35 42° 100% - - 42° 43.3° 37.8° - - 1012.0
2/27 10:30am 238 25 G 38 42° 100% - - 42° 43.3° 37.8° - - 1012.0
2/27 10:20am 242 26 G 36 42° 100% - - 42° 43.3° 37.8° - - 1012.0
2/27 10:10am 241 24 G 31 42° 100% - - 42° 43.3° 37.8° - - 1012.0
2/27 10:00am 244 22 G 30 42° 100% - - 42° 43.3° 37.8° - - 1012.0
2/27 9:50am 242 22 G 31 42° 100% - - 42° 43.3° 37.8° - - 1012.0
2/27 9:40am 238 18 G 28 42° 100% - - 42° 43.3° 37.8° - - 1012.0
2/27 9:30am 238 15 G 23 42° 100% - - 42° 43.3° 37.8° - - 1012.0
2/27 9:20am 232 17 G 27 42° 100% - - 42° 43.3° 37.8° - - 1012.0
2/27 9:10am 224 21 G 28 42° 100% - - 42° 43.3° 37.8° - - 1012.0
2/27 9:00am 235 20 G 29 42° 100% - - 42° 43.3° 37.8° - - 1012.0
2/27 8:50am 234 21 G 28 42° 100% - - 42° 43.3° 37.8° - - 1012.0
2/27 8:40am 235 25 G 34 42° 100% - - 42° 43.3° 37.8° - - 1012.0
2/27 8:30am 235 25 G 33 42° 100% - - 42° 43.3° 37.8° - - 1012.0
2/27 8:20am 233 20 G 27 42° 100% - - 42° 43.3° 37.8° - - 1012.0
2/27 8:10am 232 23 G 31 42° 100% - - 42° 43.3° 37.8° - - 1012.0
2/27 8:00am 241 24 G 33 42° 100% - - 42° 43.3° 37.8° - - 1011.0
2/27 7:50am 241 25 G 34 42° 100% - - 42° 43.3° 37.8° - - 1011.0
2/27 7:40am 232 26 G 36 42° 100% - - 43° 43.3° 37.8° - - 1011.0
2/27 7:30am 236 27 G 37 42° 100% - - 42° 43.3° 37.8° - - 1011.0
2/27 7:20am 235 27 G 37 42° 100% - - 42° 43.3° 37.8° - - 1011.0
2/27 7:10am 233 27 G 36 42° 100% - - 42° 43.3° 37.8° - - 1011.0
2/27 7:00am 233 28 G 39 42° 100% - - 42° 43.3° 37.8° - - 1011.0
2/27 6:50am 233 27 G 37 42° 100% - - 42° 43.3° 37.8° - - 1011.0
2/27 6:40am 232 25 G 32 42° 100% - - 42° 43.3° 37.8° - - 1011.0
2/27 6:30am 236 26 G 35 42° 100% - - 42° 43.3° 37.8° - - 1011.0
2/27 6:20am 233 25 G 32 42° 100% - - 42° 43.3° 37.8° - - 1011.0
2/27 6:10am 235 24 G 36 42° 100% - - 42° 43.3° 37.8° - - 1011.0
2/27 6:00am 234 24 G 35 42° 100% - - 42° 43.3° 37.8° - - 1011.0
2/27 5:50am 239 23 G 33 43° 100% - - 43° 43.3° 37.8° - - 1010.0
2/27 5:40am 233 22 G 32 43° 100% - - 43° 43.3° 37.8° - - 1010.0
2/27 5:30am 225 30 G 41 43° 100% - - 43° 43.3° 37.8° - - 1010.0
2/27 5:20am 221 35 G 47 43° 100% - - 43° 43.3° 37.8° - - 1009.0
2/27 5:10am 225 33 G 48 43° 100% - - 43° 43.2° 37.8° - - 1009.0
2/27 5:00am 226 33 G 45 43° 100% - - 43° 43.2° 37.8° - - 1009.0
2/27 4:50am 228 33 G 47 43° 100% - - 43° 43.2° 37.8° - - 1009.0
2/27 4:40am 221 32 G 43 43° 100% - - 43° 43.2° 37.8° - - 1010.0
2/27 4:30am 224 32 G 45 43° 100% - - 43° 43.2° 37.8° - - 1010.0
2/27 4:20am 229 29 G 40 42° 100% - - 42° 42.7° 37.8° - - 1010.0
2/27 4:10am 234 26 G 37 42° 100% - - 42° 42.2° 37.8° - - 1010.0
2/27 4:00am 234 26 G 37 42° 100% - - 42° 41.8° 37.8° - - 1011.0
2/27 3:50am 237 27 G 37 41° 100% - - 41° 41.5° 37.8° - - 1011.0
2/27 3:40am 238 26 G 35 41° 100% - - 41° 41.4° 37.8° - - 1011.0
2/27 3:30am 243 29 G 35 41° 100% - - 41° 41.3° 37.8° - - 1011.0
2/27 3:20am 242 28 G 38 41° 100% - - 41° 41.3° 37.8° - - 1011.0
2/27 3:10am 237 30 G 38 41° 100% - - 41° 41.2° 37.8° - - 1010.0
2/27 3:00am 240 29 G 39 41° 100% - - 41° 40.9° 37.8° - - 1010.0
2/27 2:50am 237 30 G 40 40° 100% - - 40° 40.7° 37.8° - - 1011.0
2/27 2:40am 238 30 G 39 40° 100% - - 40° 40.3° 37.8° - - 1011.0
2/27 2:30am 242 30 G 37 40° 100% - - 40° 40.1° 37.8° - - 1011.0
2/27 2:20am 238 32 G 42 40° 100% - - 40° 39.9° 37.8° - - 1011.0
2/27 2:10am 241 31 G 39 39° 100% - - 39° 39.6° 37.8° - - 1011.0
2/27 2:00am 238 32 G 41 39° 100% - - 39° 39.6° 37.8° - - 1011.0
2/27 1:50am 242 33 G 40 39° 100% - - 39° 39.4° 37.8° - - 1011.0
2/27 1:40am 242 33 G 42 39° 100% - - 39° 39.4° 37.8° - - 1012.0
2/27 1:30am 242 34 G 43 39° 100% - - 39° 39.3° 37.8° - - 1012.0
2/27 1:20am 242 35 G 44 39° 100% - - 39° 39.1° 37.8° - - 1012.0
2/27 1:10am 242 34 G 43 39° 100% - - 39° 39° 37.8° - - 1012.0
2/27 1:00am 243 37 G 48 39° 100% - - 39° 38.8° 37.8° - - 1012.0
2/27 12:50am 241 35 G 45 38° 100% - - 38° 38.6° 37.8° - - 1012.0
2/27 12:40am 243 35 G 44 38° 100% - - 38° 38.4° 37.8° - - 1012.0
2/27 12:30am 244 35 G 43 38° 100% - - 38° 38.2° 37.8° - - 1012.0
2/27 12:20am 241 37 G 47 38° 100% - - 38° 38.2° 37.8° - - 1012.0
2/27 12:10am 244 36 G 47 38° 100% - - 38° 38.2° 37.8° - - 1012.0
2/27 12:00am 242 36 G 48 38° 100% - - 38° 38.1° 31.3° - - 1012.0
2/26 11:50pm 242 37 G 48 37° 100% - - 37° 37.6° 31.3° - - 1012.0
2/26 11:40pm 244 39 G 49 37° 100% - - 37° 37.4° 31.3° - - 1012.0
2/26 11:30pm 244 41 G 49 37° 100% - - 37° 37° 31.3° - - 1012.0
2/26 11:20pm 243 40 G 51 36° 100% - - 36° 36.9° 31.3° - - 1012.0
2/26 11:10pm 243 39 G 51 35° 99% - - 35° 36.9° 31.3° - - 1012.0
2/26 11:00pm 242 39 G 50 35° 90% - - 33° 36.9° 31.3° - - 1012.0
2/26 10:50pm 241 38 G 47 35° 81% - - 29° 36.9° 31.3° - - 1013.0
2/26 10:40pm 243 36 G 47 33° 97% - - 32° 36.9° 31.3° - - 1013.0
2/26 10:30pm 244 34 G 46 33° 100% - - 33° 36.9° 31.3° - - 1014.0
2/26 10:20pm 248 33 G 44 33° 100% - - 33° 36.9° 31.3° - - 1014.0
2/26 10:10pm 245 33 G 42 32° 100% - - 32° 36.9° 31.3° - - 1014.0
2/26 10:00pm 246 32 G 42 32° 100% - - 32° 36.9° 31.3° - - 1014.0
2/26 9:50pm 250 35 G 47 32° 100% - - 32° 36.9° 31.3° - - 1014.0
2/26 9:40pm 250 36 G 47 32° 100% - - 32° 36.9° 31.3° - - 1014.0
2/26 9:30pm 248 36 G 45 32° 100% - - 32° 36.9° 31.3° - - 1014.0
2/26 9:20pm 248 36 G 47 32° 100% - - 32° 36.9° 31.3° - - 1014.0
2/26 9:10pm 248 37 G 48 33° 100% - - 33° 36.9° 31.3° - - 1014.0
2/26 9:00pm 250 37 G 49 33° 100% - - 33° 36.9° 31.3° - - 1014.0
2/26 8:50pm 250 38 G 49 33° 100% - - 33° 36.9° 31.3° - - 1013.0
2/26 8:40pm 251 39 G 50 33° 100% - - 33° 36.9° 31.3° - - 1014.0
2/26 8:30pm 251 38 G 50 33° 100% - - 33° 36.9° 31.3° - - 1014.0
2/26 8:20pm 247 39 G 52 33° 100% - - 33° 36.9° 31.3° - - 1014.0
2/26 8:10pm 252 39 G 49 32° 100% - - 32° 36.9° 31.3° - - 1014.0
2/26 8:00pm 251 36 G 46 33° 100% - - 33° 36.9° 31.3° - - 1014.0
2/26 7:50pm 251 35 G 45 33° 100% - - 33° 36.9° 31.3° - - 1014.0
2/26 7:40pm 251 33 G 44 33° 100% - - 33° 36.9° 31.3° - - 1014.0
2/26 7:30pm 251 33 G 44 33° 100% - - 33° 36.9° 31.3° - - 1014.0
2/26 7:20pm 249 32 G 42 34° 100% - - 34° 36.9° 31.3° - - 1014.0
2/26 7:10pm 252 35 G 44 34° 100% - - 34° 36.9° 31.3° - - 1013.0
2/26 7:00pm 249 34 G 45 34° 100% - - 34° 36.9° 31.3° - - 1013.0
2/26 6:50pm 250 35 G 45 34° 100% - - 34° 36.9° 31.3° - - 1013.0
2/26 6:40pm 253 36 G 46 34° 100% - - 34° 36.9° 31.3° - - 1013.0
2/26 6:30pm 254 35 G 45 35° 100% - - 35° 36.9° 31.3° - - 1013.0
2/26 6:20pm 249 35 G 46 34° 100% - - 34° 36.9° 31.3° - - 1013.0
2/26 6:10pm 249 35 G 46 34° 100% - - 34° 36.9° 31.3° - - 1013.0
2/26 6:00pm 252 34 G 46 34° 100% - - 34° 36.9° 31.3° - - 1013.0
2/26 5:50pm 251 36 G 47 34° 100% - - 34° 36.9° 31.3° - - 1013.0
2/26 5:40pm 251 35 G 48 35° 100% - - 35° 36.9° 31.3° - - 1013.0
2/26 5:30pm 249 34 G 43 35° 100% - - 35° 36.9° 31.3° - - 1013.0
2/26 5:20pm 252 35 G 45 34° 100% - - 34° 36.9° 31.3° - - 1013.0
2/26 5:10pm 249 36 G 50 35° 100% - - 35° 36.9° 31.3° - - 1013.0
2/26 5:00pm 250 32 G 43 35° 100% - - 35° 36.9° 31.3° - - 1013.0